Time;durP1;ratioP1;P1;durP2;ratioP2;P2;SDS_P1;SDS_P2;PMS_P1;PMS_P2;Temp;Humidity;BMP_temperature;BMP_pressure;BME280_temperature;BME280_humidity;BME280_pressure;Samples;Min_cycle;Max_cycle;Signal;HPM_P1;HPM_P2
2022/05/23 00:01:07;;;;;;;1.80;1.70;;;24.10;40.20;;;;;;5116885;28;20423;-82
2022/05/23 00:03:35;;;;;;;1.93;1.80;;;24.10;40.30;;;;;;5115790;28;20482;-81
2022/05/23 00:06:05;;;;;;;1.73;1.63;;;24.00;40.30;;;;;;5114855;27;20505;-81
2022/05/23 00:23:22;;;;;;;1.70;1.60;;;23.80;40.50;;;;;;5048695;28;20515;-81
2022/05/23 00:29:36;;;;;;;2.30;1.97;;;23.80;40.70;;;;;;5091991;28;20470;-82
2022/05/23 00:37:36;;;;;;;2.17;1.43;;;23.70;40.90;;;;;;5115581;28;20935;-82
2022/05/23 00:40:07;;;;;;;1.50;1.40;;;23.70;41.00;;;;;;5116077;28;20470;-84
2022/05/23 00:45:20;;;;;;;1.83;1.70;;;23.80;41.00;;;;;;5113199;28;20418;-84
2022/05/23 00:47:51;;;;;;;1.70;1.60;;;23.70;40.90;;;;;;5114329;28;20454;-84
2022/05/23 00:50:19;;;;;;;1.77;1.67;;;23.70;40.90;;;;;;5114624;28;20470;-84
2022/05/23 00:52:51;;;;;;;1.80;1.53;;;23.70;40.90;;;;;;5114681;28;20490;-83
2022/05/23 00:55:26;;;;;;;1.57;1.47;;;23.70;41.00;;;;;;5114343;28;20517;-83
2022/05/23 00:57:56;;;;;;;1.50;1.40;;;23.70;41.10;;;;;;5113252;27;20422;-83
2022/05/23 01:00:24;;;;;;;1.60;1.50;;;23.70;41.00;;;;;;5113893;28;20459;-83
2022/05/23 01:02:54;;;;;;;1.83;1.73;;;23.70;41.00;;;;;;5114437;28;20558;-83
2022/05/23 01:20:33;;;;;;;1.23;1.13;;;23.50;41.30;;;;;;5100283;28;20505;-82
2022/05/23 01:23:08;;;;;;;1.77;1.67;;;23.40;41.30;;;;;;5116941;28;20895;-83
2022/05/23 01:25:40;;;;;;;1.60;1.50;;;23.40;41.40;;;;;;5112692;28;20420;-83
2022/05/23 01:28:08;;;;;;;1.43;1.30;;;23.40;41.40;;;;;;5113060;28;20441;-83
2022/05/23 01:30:36;;;;;;;1.70;1.60;;;23.40;41.50;;;;;;5102163;28;20533;-83
2022/05/23 01:33:05;;;;;;;1.47;1.37;;;23.40;41.40;;;;;;5116093;28;20448;-82
2022/05/23 01:35:33;;;;;;;1.43;1.33;;;23.40;41.50;;;;;;5116553;28;20446;-83
2022/05/23 01:38:01;;;;;;;2.20;1.37;;;23.40;41.50;;;;;;5119489;28;20411;-82
2022/05/23 01:40:29;;;;;;;1.43;1.13;;;23.40;41.50;;;;;;5125336;28;20487;-82
2022/05/23 01:42:58;;;;;;;4.13;1.30;;;23.40;41.60;;;;;;5124562;28;20465;-82
2022/05/23 01:45:28;;;;;;;1.27;1.17;;;23.40;41.60;;;;;;5126150;28;20448;-82
2022/05/23 01:47:56;;;;;;;1.50;1.40;;;23.40;41.70;;;;;;5113304;28;20480;-82
2022/05/23 01:50:24;;;;;;;1.70;1.27;;;23.30;41.60;;;;;;5121502;28;20466;-82
2022/05/23 01:52:52;;;;;;;1.97;1.30;;;23.30;41.60;;;;;;5124329;28;20625;-83
2022/05/23 01:55:21;;;;;;;2.17;1.50;;;23.30;41.70;;;;;;5125718;28;20464;-83
2022/05/23 01:57:48;;;;;;;1.40;1.30;;;23.30;41.80;;;;;;5125225;28;21030;-83
2022/05/23 02:03:04;;;;;;;1.50;1.40;;;23.20;41.70;;;;;;5128652;28;20477;-83
2022/05/23 02:05:33;;;;;;;1.40;1.30;;;23.20;41.80;;;;;;5121110;28;20514;-83
2022/05/23 02:08:01;;;;;;;1.50;1.40;;;23.20;41.90;;;;;;5111753;28;20447;-82
2022/05/23 02:10:29;;;;;;;1.70;1.40;;;23.20;41.90;;;;;;5129117;28;20533;-83
2022/05/23 02:13:00;;;;;;;2.23;1.37;;;23.10;41.90;;;;;;5112776;28;20455;-83
2022/05/23 02:15:31;;;;;;;1.30;1.20;;;23.10;41.90;;;;;;5129470;28;20432;-83
2022/05/23 02:18:00;;;;;;;1.30;1.30;;;23.10;41.90;;;;;;5110301;28;20438;-82
2022/05/23 02:20:28;;;;;;;1.10;1.10;;;23.10;41.90;;;;;;5107442;28;20452;-83
2022/05/23 02:22:56;;;;;;;1.73;1.30;;;23.10;42.00;;;;;;5125197;28;20467;-82
2022/05/23 02:25:25;;;;;;;1.10;1.10;;;23.00;41.90;;;;;;5111828;28;20443;-84
2022/05/23 02:27:53;;;;;;;1.30;1.20;;;23.00;42.10;;;;;;5107163;28;20437;-83
2022/05/23 02:30:21;;;;;;;1.37;1.27;;;23.00;42.10;;;;;;5108544;28;20488;-83
2022/05/23 02:32:50;;;;;;;1.53;1.37;;;23.00;42.10;;;;;;5104458;28;20492;-83
2022/05/23 02:51:10;;;;;;;1.40;1.20;;;22.80;42.30;;;;;;5100195;28;20471;-85
2022/05/23 02:53:40;;;;;;;1.10;1.10;;;22.80;42.40;;;;;;5100904;28;20527;-84
2022/05/23 02:56:08;;;;;;;1.17;1.07;;;22.80;42.50;;;;;;5111513;28;20435;-85
2022/05/23 02:58:36;;;;;;;1.50;1.40;;;22.70;42.50;;;;;;5118646;28;20440;-85
2022/05/23 03:01:04;;;;;;;3.57;1.50;;;22.70;43.00;;;;;;5118526;28;20502;-85
2022/05/23 03:03:32;;;;;;;1.20;1.20;;;22.70;42.40;;;;;;5119707;28;20459;-85
2022/05/23 03:06:00;;;;;;;2.30;1.00;;;22.70;42.50;;;;;;5118997;28;20443;-85
2022/05/23 03:08:28;;;;;;;1.30;1.20;;;22.70;42.50;;;;;;5118506;28;20479;-85
2022/05/23 03:10:59;;;;;;;1.60;1.50;;;22.70;42.60;;;;;;5118512;28;20495;-85
2022/05/23 03:13:27;;;;;;;1.57;1.47;;;22.70;42.70;;;;;;5112107;28;20442;-84
2022/05/23 03:15:55;;;;;;;1.10;1.10;;;22.70;42.50;;;;;;5104680;28;20468;-85
2022/05/23 03:18:24;;;;;;;2.30;1.20;;;22.70;42.50;;;;;;5105210;28;20504;-84
2022/05/23 03:20:55;;;;;;;2.13;1.10;;;22.60;42.60;;;;;;5106062;28;20491;-84
2022/05/23 03:40:13;;;;;;;1.30;1.13;;;22.60;42.60;;;;;;5126601;28;20465;-84
2022/05/23 03:42:42;;;;;;;1.30;1.20;;;22.60;42.60;;;;;;5126215;28;20471;-84
2022/05/23 03:45:11;;;;;;;1.50;1.27;;;22.60;42.60;;;;;;5124966;27;20471;-84
2022/05/23 03:47:39;;;;;;;1.57;1.30;;;22.60;42.60;;;;;;5126328;28;20530;-84
2022/05/23 03:50:08;;;;;;;1.07;1.07;;;22.70;42.80;;;;;;5126511;28;20459;-84
2022/05/23 03:52:35;;;;;;;1.27;1.27;;;22.70;42.60;;;;;;5126316;28;20428;-84
2022/05/23 03:55:04;;;;;;;1.10;1.10;;;22.70;42.40;;;;;;5122683;28;20456;-85
2022/05/23 03:57:32;;;;;;;1.60;1.33;;;22.70;42.40;;;;;;5119559;28;20463;-84
2022/05/23 04:00:02;;;;;;;1.83;1.20;;;22.70;42.40;;;;;;5119103;27;20455;-84
2022/05/23 04:02:30;;;;;;;1.57;1.47;;;22.70;42.40;;;;;;5111147;28;20441;-85
2022/05/23 04:04:58;;;;;;;1.30;1.20;;;22.80;42.50;;;;;;5097950;28;20614;-85
2022/05/23 04:07:26;;;;;;;1.20;1.10;;;22.70;42.40;;;;;;5101456;28;20947;-84
2022/05/23 04:09:54;;;;;;;1.50;1.40;;;22.70;42.40;;;;;;5105038;28;20455;-84
2022/05/23 04:12:22;;;;;;;1.10;1.10;;;22.80;42.40;;;;;;5104975;28;20476;-84
2022/05/23 04:14:50;;;;;;;1.20;1.10;;;22.70;42.30;;;;;;5110255;28;20448;-84
2022/05/23 04:17:20;;;;;;;1.70;1.60;;;22.80;42.40;;;;;;5120454;28;20471;-82
2022/05/23 04:19:48;;;;;;;1.60;1.33;;;22.80;42.40;;;;;;5125175;28;20467;-84
2022/05/23 04:22:17;;;;;;;1.40;1.30;;;22.80;42.30;;;;;;5124239;28;20440;-84
2022/05/23 04:24:45;;;;;;;1.30;1.20;;;22.80;42.30;;;;;;5125933;28;20495;-84
2022/05/23 04:27:19;;;;;;;1.30;1.30;;;22.80;42.30;;;;;;5124714;28;20486;-84
2022/05/23 04:29:47;;;;;;;1.57;1.40;;;22.80;42.30;;;;;;5124926;28;20497;-85
2022/05/23 04:35:14;;;;;;;2.57;1.37;;;22.80;42.30;;;;;;5104994;28;20440;-85
2022/05/23 04:37:44;;;;;;;1.03;1.03;;;22.80;42.30;;;;;;5102909;28;20464;-85
2022/05/23 04:40:13;;;;;;;1.57;1.27;;;22.80;42.30;;;;;;5100712;28;20509;-85
2022/05/23 04:42:41;;;;;;;3.13;1.07;;;22.90;42.30;;;;;;5101644;28;20444;-85
2022/05/23 04:45:10;;;;;;;1.13;1.13;;;22.90;42.20;;;;;;5100908;28;20503;-85
2022/05/23 04:50:25;;;;;;;1.20;1.13;;;23.00;42.20;;;;;;5100184;28;20543;-85
2022/05/23 04:52:56;;;;;;;1.30;1.20;;;22.90;42.20;;;;;;5099492;28;20536;-85
2022/05/23 04:55:24;;;;;;;1.47;1.37;;;22.90;42.20;;;;;;5102174;28;20472;-84
2022/05/23 04:57:53;;;;;;;1.80;1.30;;;23.00;42.20;;;;;;5104130;28;20448;-84
2022/05/23 05:00:22;;;;;;;0.90;0.90;;;23.00;42.20;;;;;;5103545;28;20469;-84
2022/05/23 05:02:50;;;;;;;1.40;1.30;;;23.00;42.20;;;;;;5103439;28;20475;-84
2022/05/23 05:05:19;;;;;;;1.30;1.20;;;23.00;42.10;;;;;;5111363;28;20629;-85
2022/05/23 05:07:48;;;;;;;1.40;1.30;;;23.10;42.20;;;;;;5119344;28;20486;-85
2022/05/23 05:10:16;;;;;;;1.00;1.00;;;23.10;42.10;;;;;;5117625;28;20476;-84
2022/05/23 05:12:44;;;;;;;1.53;1.43;;;23.20;42.00;;;;;;5115563;28;20482;-85
2022/05/23 05:15:12;;;;;;;1.20;1.10;;;23.20;42.00;;;;;;5115265;28;20467;-84
2022/05/23 05:17:41;;;;;;;1.40;0.93;;;23.20;41.90;;;;;;5117023;28;20427;-85
2022/05/23 05:20:10;;;;;;;1.40;1.30;;;23.20;41.90;;;;;;5119847;28;20466;-85
2022/05/23 05:22:38;;;;;;;1.00;1.00;;;23.30;41.90;;;;;;5115577;28;20448;-84
2022/05/23 05:25:09;;;;;;;1.10;1.10;;;23.30;41.80;;;;;;5102248;28;20491;-85
2022/05/23 05:27:37;;;;;;;1.30;1.20;;;23.30;41.80;;;;;;5095122;28;20524;-85
2022/05/23 05:30:07;;;;;;;1.20;1.10;;;23.40;41.90;;;;;;5098460;28;20567;-85
2022/05/23 05:32:37;;;;;;;1.40;1.30;;;23.40;41.70;;;;;;5098403;28;20819;-85
2022/05/23 05:35:07;;;;;;;1.07;1.07;;;23.40;41.60;;;;;;5097387;28;20454;-84
2022/05/23 05:37:39;;;;;;;1.20;1.10;;;23.40;41.80;;;;;;5098917;28;20441;-84
2022/05/23 05:40:09;;;;;;;1.10;1.10;;;23.40;41.70;;;;;;5113848;28;20551;-84
2022/05/23 05:42:39;;;;;;;1.30;1.30;;;23.40;41.60;;;;;;5099323;28;20514;-85
2022/05/23 05:45:09;;;;;;;1.20;1.20;;;23.50;41.60;;;;;;5096737;28;20468;-85
2022/05/23 05:47:38;;;;;;;1.63;1.30;;;23.50;42.10;;;;;;5097439;28;20448;-85
2022/05/23 05:50:08;;;;;;;1.30;1.20;;;23.60;41.60;;;;;;5098134;28;20484;-85
2022/05/23 05:52:35;;;;;;;1.03;1.00;;;23.50;41.50;;;;;;5099503;28;21016;-85
2022/05/23 05:55:04;;;;;;;5.67;1.27;;;23.60;41.60;;;;;;5112659;28;20479;-85
2022/05/23 05:57:34;;;;;;;1.10;1.10;;;23.60;41.50;;;;;;5101590;28;21003;-85
2022/05/23 06:00:02;;;;;;;1.27;1.17;;;23.60;41.40;;;;;;5096820;28;20989;-85
2022/05/23 06:02:30;;;;;;;2.93;1.10;;;23.70;41.40;;;;;;5100208;28;20449;-85
2022/05/23 06:04:59;;;;;;;1.27;1.17;;;23.70;41.30;;;;;;5098770;28;20502;-85
2022/05/23 06:13:08;;;;;;;2.10;1.57;;;23.80;41.40;;;;;;5107310;28;20411;-85
2022/05/23 06:19:23;;;;;;;2.13;1.20;;;23.80;41.20;;;;;;5097693;28;20427;-84
2022/05/23 06:21:52;;;;;;;1.43;1.20;;;23.80;41.40;;;;;;5097934;28;20515;-84
2022/05/23 06:24:20;;;;;;;1.30;1.20;;;23.90;41.40;;;;;;5099914;28;20534;-85
2022/05/23 06:26:47;;;;;;;1.20;1.20;;;23.90;41.30;;;;;;5116563;28;20542;-85
2022/05/23 06:29:17;;;;;;;1.40;1.30;;;23.90;41.20;;;;;;5100053;28;20471;-85
2022/05/23 06:31:47;;;;;;;1.10;1.10;;;23.90;41.10;;;;;;5100036;28;20465;-84
2022/05/23 06:34:15;;;;;;;1.53;1.43;;;24.00;41.20;;;;;;5100725;28;20440;-85
2022/05/23 06:36:43;;;;;;;1.20;1.10;;;24.10;41.20;;;;;;5100418;28;20450;-85
2022/05/23 06:39:11;;;;;;;1.37;1.37;;;24.10;41.10;;;;;;5099936;28;20469;-85
2022/05/23 06:41:39;;;;;;;1.30;1.30;;;24.20;41.00;;;;;;5110655;28;20548;-85
2022/05/23 06:44:08;;;;;;;1.63;1.10;;;24.30;40.90;;;;;;5120370;28;20501;-85
2022/05/23 06:46:37;;;;;;;1.27;1.20;;;24.40;40.90;;;;;;5123842;28;20467;-85
2022/05/23 06:49:06;;;;;;;1.17;1.17;;;24.50;40.80;;;;;;5126169;28;20450;-85
2022/05/23 06:51:34;;;;;;;1.20;1.10;;;24.60;40.70;;;;;;5126558;28;20547;-85
2022/05/23 06:54:02;;;;;;;1.00;1.00;;;24.60;40.60;;;;;;5124122;28;20510;-84
2022/05/23 06:56:30;;;;;;;1.30;1.20;;;24.70;40.60;;;;;;5122049;28;20451;-85
2022/05/23 06:58:58;;;;;;;1.20;1.20;;;24.70;40.40;;;;;;5107196;28;20460;-84
2022/05/23 07:01:26;;;;;;;1.60;1.50;;;24.80;40.60;;;;;;5121456;28;20477;-85
2022/05/23 07:03:55;;;;;;;1.20;1.10;;;24.90;40.60;;;;;;5120190;28;20450;-85
2022/05/23 07:14:41;;;;;;;2.10;1.40;;;25.20;40.40;;;;;;5111958;28;20487;-85
2022/05/23 07:17:09;;;;;;;1.47;1.20;;;25.30;40.10;;;;;;5122399;28;20494;-85
2022/05/23 07:19:39;;;;;;;2.40;1.10;;;25.40;40.10;;;;;;5123226;28;20423;-86
2022/05/23 07:22:08;;;;;;;1.37;1.30;;;25.50;40.00;;;;;;5124485;28;20450;-85
2022/05/23 07:24:36;;;;;;;1.37;1.27;;;25.60;40.10;;;;;;5121562;28;20475;-85
2022/05/23 07:27:04;;;;;;;1.30;1.30;;;25.70;39.90;;;;;;5122828;28;20426;-85
2022/05/23 07:29:32;;;;;;;2.33;1.20;;;25.80;39.90;;;;;;5122939;28;20445;-84
2022/05/23 07:32:01;;;;;;;1.10;1.00;;;25.90;40.10;;;;;;5116001;28;20477;-85
2022/05/23 07:34:29;;;;;;;1.50;1.40;;;26.00;39.90;;;;;;5118215;28;20407;-85
2022/05/23 07:37:00;;;;;;;1.47;1.37;;;26.10;39.90;;;;;;5124106;28;20543;-85
2022/05/23 07:39:28;;;;;;;2.10;1.13;;;26.10;40.00;;;;;;5123501;28;20444;-85
2022/05/23 07:41:56;;;;;;;2.43;1.30;;;26.20;39.90;;;;;;5124510;28;20459;-85
2022/05/23 07:44:24;;;;;;;1.77;1.67;;;26.30;39.80;;;;;;5122958;28;20457;-85
2022/05/23 07:46:53;;;;;;;3.10;1.60;;;26.50;39.60;;;;;;5118328;27;20492;-85
2022/05/23 07:49:21;;;;;;;1.67;1.57;;;26.60;39.70;;;;;;5101952;28;20475;-84
2022/05/23 07:51:49;;;;;;;1.97;1.50;;;26.70;39.60;;;;;;5101028;28;20480;-84
2022/05/23 08:02:35;;;;;;;2.17;1.30;;;27.10;39.40;;;;;;5096010;28;20412;-83
2022/05/23 08:05:03;;;;;;;1.43;1.33;;;27.20;39.50;;;;;;5104982;28;20481;-83
2022/05/23 08:07:31;;;;;;;1.90;1.40;;;27.30;39.30;;;;;;5110232;28;20441;-84
2022/05/23 08:10:01;;;;;;;2.90;1.47;;;27.50;39.10;;;;;;5101068;28;20454;-84
2022/05/23 08:12:29;;;;;;;1.77;1.47;;;27.60;39.20;;;;;;5102973;28;20464;-84
2022/05/23 08:14:57;;;;;;;1.40;1.30;;;27.70;39.00;;;;;;5102784;28;20444;-84
2022/05/23 08:17:25;;;;;;;1.20;1.20;;;27.80;39.00;;;;;;5104247;28;20544;-84
2022/05/23 08:19:54;;;;;;;1.70;1.60;;;28.00;39.00;;;;;;5101337;28;20467;-84
2022/05/23 08:22:23;;;;;;;5.70;1.30;;;28.10;38.90;;;;;;5103817;28;20497;-84
2022/05/23 08:24:51;;;;;;;5.90;1.50;;;28.30;38.80;;;;;;5106073;28;20453;-84
2022/05/23 08:27:21;;;;;;;1.30;1.20;;;28.50;38.80;;;;;;5097780;28;20551;-84
2022/05/23 08:29:49;;;;;;;2.30;1.57;;;28.60;38.60;;;;;;5101149;28;20467;-85
2022/05/23 08:32:17;;;;;;;1.60;1.50;;;28.80;38.60;;;;;;5116279;28;20467;-84
2022/05/23 08:34:47;;;;;;;1.40;1.30;;;28.90;38.50;;;;;;5120302;28;20411;-84
2022/05/23 08:37:15;;;;;;;2.00;1.40;;;29.10;38.40;;;;;;5121352;28;20515;-84
2022/05/23 08:39:43;;;;;;;1.40;1.30;;;29.20;38.20;;;;;;5116603;27;20481;-85
2022/05/23 08:42:16;;;;;;;2.63;1.40;;;29.40;38.20;;;;;;5118623;28;20429;-84
2022/05/23 08:44:47;;;;;;;1.90;1.80;;;29.50;38.10;;;;;;5127126;28;20432;-84
2022/05/23 08:47:20;;;;;;;1.50;1.37;;;29.70;38.10;;;;;;5115515;28;20469;-84
2022/05/23 08:49:51;;;;;;;1.40;1.33;;;29.80;37.90;;;;;;5107312;28;20432;-84
2022/05/23 08:52:21;;;;;;;2.23;1.60;;;30.00;37.80;;;;;;5110472;28;20475;-84
2022/05/23 08:54:53;;;;;;;1.50;1.20;;;30.10;37.80;;;;;;5109202;28;20474;-83
2022/05/23 08:57:28;;;;;;;1.40;1.30;;;30.30;37.70;;;;;;5121408;28;20426;-83
2022/05/23 09:00:00;;;;;;;1.40;1.30;;;30.50;37.60;;;;;;5121828;28;20488;-82
2022/05/23 09:02:37;;;;;;;1.10;1.00;;;30.70;37.40;;;;;;5120612;28;20421;-82
2022/05/23 09:05:08;;;;;;;1.73;1.47;;;30.90;37.40;;;;;;5120415;28;20420;-82
2022/05/23 09:07:40;;;;;;;1.40;1.30;;;31.10;37.30;;;;;;5120110;28;20506;-82
2022/05/23 09:10:11;;;;;;;3.10;1.30;;;31.20;37.20;;;;;;5117544;28;20486;-82
2022/05/23 09:12:39;;;;;;;2.50;1.80;;;31.40;37.10;;;;;;5117863;28;20548;-82
2022/05/23 09:15:09;;;;;;;1.30;1.20;;;31.60;37.00;;;;;;5118707;28;20444;-82
2022/05/23 09:17:39;;;;;;;1.40;1.30;;;31.70;36.90;;;;;;5117991;28;20894;-82
2022/05/23 09:20:11;;;;;;;1.10;1.00;;;31.80;36.90;;;;;;5118629;28;20493;-82
2022/05/23 09:22:43;;;;;;;1.53;1.43;;;32.00;36.80;;;;;;5118690;28;20444;-82
2022/05/23 09:25:12;;;;;;;1.30;1.20;;;32.10;36.60;;;;;;5117820;28;20483;-82
2022/05/23 09:27:42;;;;;;;1.63;1.30;;;32.30;36.50;;;;;;5117739;28;20554;-81
2022/05/23 09:30:13;;;;;;;1.57;1.10;;;32.50;36.50;;;;;;5115747;28;20900;-81
2022/05/23 09:32:44;;;;;;;1.80;1.67;;;32.70;36.40;;;;;;5109700;28;20531;-81
2022/05/23 09:35:15;;;;;;;2.10;1.40;;;32.80;36.20;;;;;;5117336;28;20486;-80
2022/05/23 09:37:48;;;;;;;3.70;1.30;;;33.00;36.10;;;;;;5116843;28;20440;-81
2022/05/23 09:40:23;;;;;;;1.37;1.27;;;33.10;36.00;;;;;;5117759;28;20535;-81
2022/05/23 09:48:24;;;;;;;2.10;1.50;;;33.50;35.50;;;;;;5117464;28;20448;-82
2022/05/23 09:50:56;;;;;;;2.53;1.63;;;33.60;35.20;;;;;;5116336;28;20582;-82
2022/05/23 09:53:25;;;;;;;1.60;1.50;;;33.80;35.20;;;;;;5117778;28;20444;-82
2022/05/23 09:56:24;;;;;;;1.20;1.20;;;33.90;35.10;;;;;;5117691;28;20443;-81
2022/05/23 09:58:52;;;;;;;1.50;1.40;;;34.10;34.90;;;;;;5116913;28;20443;-81
2022/05/23 10:01:27;;;;;;;1.43;1.33;;;34.20;34.80;;;;;;5116297;28;20526;-81
2022/05/23 10:03:55;;;;;;;1.90;1.40;;;34.30;34.70;;;;;;5116522;28;20452;-81
2022/05/23 10:06:33;;;;;;;1.47;1.37;;;34.50;34.60;;;;;;5116309;28;20478;-81
2022/05/23 10:09:01;;;;;;;1.30;1.30;;;34.70;34.50;;;;;;5116427;28;20455;-81
2022/05/23 10:11:30;;;;;;;1.53;1.33;;;34.80;34.30;;;;;;5116481;28;20448;-81
2022/05/23 10:13:59;;;;;;;1.40;1.30;;;35.00;34.30;;;;;;5116213;28;20475;-81
2022/05/23 10:16:30;;;;;;;1.50;1.50;;;35.20;34.20;;;;;;5116358;28;20527;-81
2022/05/23 10:19:00;;;;;;;1.33;1.33;;;35.30;34.10;;;;;;5116564;28;20514;-81
2022/05/23 10:21:31;;;;;;;1.53;1.20;;;35.50;33.90;;;;;;5119036;28;20539;-81
2022/05/23 10:24:07;;;;;;;3.53;1.50;;;35.70;33.80;;;;;;5101222;28;20536;-81
2022/05/23 10:26:41;;;;;;;1.50;1.40;;;35.90;33.60;;;;;;5119277;28;20474;-81
2022/05/23 10:29:11;;;;;;;2.50;1.30;;;36.10;33.40;;;;;;5121049;28;20453;-80
2022/05/23 10:31:43;;;;;;;1.30;1.20;;;36.20;33.20;;;;;;5121057;28;20456;-81
2022/05/23 10:34:13;;;;;;;2.63;1.10;;;36.40;33.20;;;;;;5122127;28;20555;-81
2022/05/23 10:36:42;;;;;;;1.20;1.20;;;36.60;33.00;;;;;;5121794;28;20463;-80
2022/05/23 10:42:11;;;;;;;1.43;1.30;;;36.90;33.50;;;;;;5102654;28;20539;-81
2022/05/23 10:44:55;;;;;;;1.27;1.00;;;37.00;32.80;;;;;;5124403;28;20778;-83
2022/05/23 10:47:30;;;;;;;2.37;1.20;;;37.20;32.60;;;;;;5123806;28;20490;-83
2022/05/23 10:50:00;;;;;;;6.00;1.30;;;37.30;32.40;;;;;;5120335;28;20479;-83
2022/05/23 10:52:33;;;;;;;2.30;1.30;;;37.50;32.20;;;;;;5123882;28;20451;-84
2022/05/23 10:55:05;;;;;;;2.50;1.20;;;37.70;32.20;;;;;;5116714;27;20447;-83
2022/05/23 10:57:42;;;;;;;1.20;1.20;;;37.90;32.00;;;;;;5108188;28;20437;-80
2022/05/23 11:00:14;;;;;;;1.40;1.30;;;38.10;31.90;;;;;;5113464;28;20463;-81
2022/05/23 11:02:51;;;;;;;1.30;1.20;;;38.30;31.70;;;;;;5124886;28;20440;-82
2022/05/23 11:05:22;;;;;;;1.93;1.37;;;38.50;31.50;;;;;;5124327;28;20462;-82
2022/05/23 11:07:57;;;;;;;2.03;1.20;;;38.60;31.40;;;;;;5122681;28;20463;-82
2022/05/23 11:10:28;;;;;;;2.80;1.00;;;38.80;31.20;;;;;;5121419;27;20569;-82
2022/05/23 11:13:13;;;;;;;1.17;1.17;;;38.90;31.10;;;;;;5120696;28;20526;-83
2022/05/23 11:15:45;;;;;;;6.73;1.50;;;39.20;31.00;;;;;;5112574;27;20430;-81
2022/05/23 11:18:19;;;;;;;1.90;1.10;;;39.90;29.60;;;;;;5123001;28;20408;-81
2022/05/23 11:20:48;;;;;;;3.07;1.33;;;41.20;28.70;;;;;;5122292;28;20824;-82
2022/05/23 11:23:19;;;;;;;1.80;1.20;;;42.30;27.70;;;;;;5120358;28;20455;-80
2022/05/23 11:25:48;;;;;;;1.27;1.17;;;43.10;26.90;;;;;;5122063;28;20436;-81
2022/05/23 11:33:54;;;;;;;4.17;1.10;;;45.30;24.90;;;;;;5101352;28;20424;-83
2022/05/23 11:36:27;;;;;;;1.43;1.00;;;46.00;24.50;;;;;;5118483;28;21112;-83
2022/05/23 11:38:55;;;;;;;3.07;1.10;;;46.50;23.90;;;;;;5119512;28;20471;-85
2022/05/23 11:41:33;;;;;;;2.73;1.00;;;46.90;23.50;;;;;;5118032;28;20487;-82
2022/05/23 11:44:02;;;;;;;0.90;0.90;;;47.20;23.20;;;;;;5120921;28;20451;-83
2022/05/23 11:47:05;;;;;;;0.90;0.90;;;47.50;23.00;;;;;;5119754;28;20470;-82
2022/05/23 11:49:44;;;;;;;1.00;1.00;;;47.70;22.90;;;;;;5120366;28;20463;-83
2022/05/23 11:52:24;;;;;;;1.30;1.00;;;47.70;22.70;;;;;;5124783;28;20443;-82
2022/05/23 11:54:52;;;;;;;1.00;1.00;;;47.80;22.40;;;;;;5124901;28;20530;-82
2022/05/23 11:57:36;;;;;;;3.93;0.90;;;47.90;22.20;;;;;;5125471;28;20496;-82
2022/05/23 12:00:26;;;;;;;0.83;0.83;;;47.90;22.00;;;;;;5126989;28;20455;-82
2022/05/23 12:03:15;;;;;;;1.00;1.00;;;47.90;22.10;;;;;;5113609;28;20455;-81
2022/05/23 12:05:45;;;;;;;1.95;0.80;;;48.20;21.90;;;;;;5105338;28;20463;-81
2022/05/23 12:08:29;;;;;;;1.55;0.90;;;48.40;21.80;;;;;;5104459;28;20218;-82
2022/05/23 12:11:00;;;;;;;2.05;1.30;;;48.10;21.90;;;;;;5104180;28;20231;-81
2022/05/23 12:13:40;;;;;;;0.95;0.95;;;48.10;22.10;;;;;;5105347;28;20436;-81
2022/05/23 12:16:46;;;;;;;0.60;0.60;;;47.90;21.90;;;;;;5105491;28;20215;-81
2022/05/23 12:19:56;;;;;;;0.80;0.80;;;47.70;22.10;;;;;;5103538;28;20460;-82
2022/05/23 12:22:28;;;;;;;1.10;0.83;;;47.90;22.10;;;;;;5102414;28;20245;-82
2022/05/23 12:25:16;;;;;;;2.63;1.00;;;47.50;22.10;;;;;;5105599;28;20468;-81
2022/05/23 12:28:03;;;;;;;1.80;0.77;;;47.40;22.50;;;;;;5104750;28;20433;-82
2022/05/23 12:30:41;;;;;;;3.53;0.80;;;47.20;22.60;;;;;;5105264;28;20531;-81
2022/05/23 12:33:15;;;;;;;2.13;0.90;;;47.10;22.70;;;;;;5105397;28;20471;-81
2022/05/23 12:35:53;;;;;;;1.10;0.90;;;46.90;22.90;;;;;;5105426;28;20547;-81
2022/05/23 12:38:43;;;;;;;1.37;0.90;;;46.60;23.20;;;;;;5111973;28;20547;-82
2022/05/23 12:41:17;;;;;;;0.80;0.80;;;46.30;23.20;;;;;;5118318;28;20486;-82
2022/05/23 12:44:06;;;;;;;1.73;0.90;;;46.10;23.30;;;;;;5116705;28;20447;-82
2022/05/23 12:46:37;;;;;;;3.07;1.00;;;45.60;23.90;;;;;;5124023;28;20443;-82
2022/05/23 12:49:21;;;;;;;1.47;1.00;;;45.40;24.50;;;;;;5124828;28;20514;-81
2022/05/23 12:51:56;;;;;;;3.30;1.37;;;45.00;24.30;;;;;;5123379;28;20471;-81
2022/05/23 12:54:34;;;;;;;5.03;1.10;;;44.80;24.70;;;;;;5124624;28;20441;-81
2022/05/23 12:57:47;;;;;;;1.97;1.20;;;44.50;24.80;;;;;;5123983;28;20443;-81
2022/05/23 13:00:16;;;;;;;1.20;1.10;;;44.10;25.10;;;;;;5089056;28;20523;-82
2022/05/23 13:02:46;;;;;;;1.00;0.90;;;44.00;25.20;;;;;;5124063;28;20473;-82
2022/05/23 13:05:17;;;;;;;1.30;1.20;;;43.70;25.50;;;;;;5123021;28;20872;-81
2022/05/23 13:07:50;;;;;;;1.43;1.07;;;43.40;25.70;;;;;;5121617;28;20435;-81
2022/05/23 13:10:22;;;;;;;1.30;1.10;;;43.00;25.80;;;;;;5114979;28;20499;-81
2022/05/23 13:12:56;;;;;;;2.10;1.00;;;42.90;26.10;;;;;;5121708;28;20427;-82
2022/05/23 13:15:25;;;;;;;4.00;1.10;;;42.70;26.10;;;;;;5121564;28;20501;-82
2022/05/23 13:17:53;;;;;;;0.90;0.90;;;42.70;26.20;;;;;;5120928;28;20498;-82
2022/05/23 13:23:14;;;;;;;1.30;1.10;;;42.30;26.40;;;;;;5120914;28;20456;-82
2022/05/23 13:25:43;;;;;;;1.30;1.20;;;42.10;26.60;;;;;;5111823;28;20463;-81
2022/05/23 13:28:12;;;;;;;1.00;1.00;;;41.90;26.80;;;;;;5120753;28;20455;-81
2022/05/23 13:30:43;;;;;;;1.63;1.53;;;41.70;27.00;;;;;;5121040;28;20460;-81
2022/05/23 13:33:14;;;;;;;1.20;1.20;;;41.40;27.10;;;;;;5120542;28;20470;-82
2022/05/23 13:35:42;;;;;;;3.40;0.97;;;41.20;27.30;;;;;;5120801;28;20420;-82
2022/05/23 13:38:15;;;;;;;2.00;1.13;;;41.00;27.40;;;;;;5120048;28;20505;-82
2022/05/23 13:40:45;;;;;;;1.20;1.10;;;40.90;27.60;;;;;;5119620;28;20523;-82
2022/05/23 13:43:14;;;;;;;1.97;1.20;;;40.80;27.60;;;;;;5114820;28;20447;-82
2022/05/23 13:45:43;;;;;;;1.00;0.97;;;40.80;27.70;;;;;;5118370;28;20431;-82
2022/05/23 13:48:16;;;;;;;1.87;1.13;;;40.70;27.70;;;;;;5120640;28;20440;-82
2022/05/23 13:50:46;;;;;;;1.40;1.30;;;40.50;27.70;;;;;;5119853;28;20498;-82
2022/05/23 13:53:15;;;;;;;1.33;1.20;;;40.40;27.80;;;;;;5120410;28;20454;-82
2022/05/23 13:55:47;;;;;;;2.63;1.53;;;40.30;28.10;;;;;;5119430;28;20471;-82
2022/05/23 13:58:16;;;;;;;1.17;1.00;;;40.10;28.00;;;;;;5118799;28;20460;-81
2022/05/23 14:00:50;;;;;;;1.63;1.20;;;40.00;28.30;;;;;;5101202;28;20532;-81
2022/05/23 14:03:21;;;;;;;1.57;1.43;;;39.90;28.30;;;;;;5099319;28;20464;-81
2022/05/23 14:05:50;;;;;;;2.33;0.97;;;39.90;28.40;;;;;;5098926;28;20436;-82
2022/05/23 14:08:21;;;;;;;1.33;1.30;;;39.80;28.40;;;;;;5099433;28;20531;-82
2022/05/23 14:10:51;;;;;;;1.83;1.47;;;39.80;28.50;;;;;;5099197;28;20448;-82
2022/05/23 14:13:19;;;;;;;3.03;1.67;;;39.70;28.40;;;;;;5098500;28;20465;-82
2022/05/23 14:15:52;;;;;;;1.43;1.00;;;39.70;28.60;;;;;;5115046;28;20475;-82
2022/05/23 14:18:20;;;;;;;2.40;1.30;;;39.60;28.50;;;;;;5119317;28;20458;-82
2022/05/23 14:20:50;;;;;;;1.67;1.27;;;39.60;28.50;;;;;;5119448;28;20490;-82
2022/05/23 14:23:22;;;;;;;1.53;1.07;;;39.60;28.40;;;;;;5119316;28;20436;-82
2022/05/23 14:26:05;;;;;;;1.53;1.43;;;39.60;28.90;;;;;;5119151;28;20478;-82
2022/05/23 14:28:49;;;;;;;1.70;1.23;;;39.50;28.50;;;;;;5119320;28;20455;-82
2022/05/23 14:31:38;;;;;;;2.60;1.30;;;39.50;28.60;;;;;;5118915;28;20880;-82
2022/05/23 14:34:08;;;;;;;1.50;1.10;;;39.40;28.70;;;;;;5099299;28;20444;-82
2022/05/23 14:36:37;;;;;;;1.33;1.23;;;39.30;28.70;;;;;;5099747;28;20464;-82
2022/05/23 14:39:06;;;;;;;3.40;1.23;;;39.20;28.70;;;;;;5098266;28;20477;-82
2022/05/23 14:41:38;;;;;;;1.70;1.30;;;39.20;28.80;;;;;;5098624;28;20461;-82
2022/05/23 14:44:08;;;;;;;1.10;1.10;;;39.10;28.90;;;;;;5099120;28;20467;-82
2022/05/23 14:46:37;;;;;;;3.33;1.30;;;39.00;29.00;;;;;;5101695;28;20512;-82
2022/05/23 14:49:06;;;;;;;1.40;1.30;;;38.80;29.10;;;;;;5098651;28;20421;-82
2022/05/23 14:51:35;;;;;;;1.40;1.30;;;38.70;29.20;;;;;;5098651;28;20491;-82
2022/05/23 14:57:05;;;;;;;2.60;1.30;;;38.60;29.30;;;;;;5098709;28;20423;-82
2022/05/23 15:02:24;;;;;;;2.20;1.33;;;38.40;30.00;;;;;;5108132;28;20452;-82
2022/05/23 15:04:51;;;;;;;1.27;1.17;;;38.20;29.50;;;;;;5099387;28;20496;-82
2022/05/23 15:07:21;;;;;;;2.10;1.63;;;38.10;29.60;;;;;;5101130;28;20471;-82
2022/05/23 15:09:49;;;;;;;1.83;1.33;;;37.90;29.60;;;;;;5102419;28;21005;-82
2022/05/23 15:12:20;;;;;;;1.40;1.30;;;37.80;29.70;;;;;;5101790;28;20441;-82
2022/05/23 15:14:48;;;;;;;1.57;1.20;;;37.70;29.80;;;;;;5101993;28;20448;-82
2022/05/23 15:17:18;;;;;;;1.40;1.40;;;37.50;29.90;;;;;;5101106;28;20474;-82
2022/05/23 15:19:46;;;;;;;1.40;1.30;;;37.40;30.00;;;;;;5115099;28;20472;-82